createdAt,value
2022-08-07T00:01:44.099Z,12.11
2022-08-07T00:04:04.740Z,12.05
2022-08-07T00:06:33.513Z,12.00
2022-08-07T00:09:16.382Z,11.96
2022-08-07T00:11:54.062Z,11.92
2022-08-07T00:14:30.125Z,12.01
2022-08-07T00:17:01.708Z,11.95
2022-08-07T00:19:34.028Z,11.75
2022-08-07T00:22:34.555Z,11.72
2022-08-07T00:25:06.992Z,11.79
2022-08-07T00:27:52.995Z,11.77
2022-08-07T00:30:26.528Z,11.71
2022-08-07T00:32:56.346Z,11.69
2022-08-07T00:35:23.208Z,11.60
2022-08-07T00:37:50.014Z,11.55
2022-08-07T00:40:17.578Z,11.65
2022-08-07T00:43:04.120Z,11.72
2022-08-07T00:45:38.041Z,11.72
2022-08-07T00:48:10.336Z,11.71
2022-08-07T00:50:50.333Z,11.66
2022-08-07T00:53:20.242Z,11.53
2022-08-07T00:56:00.347Z,11.43
2022-08-07T00:58:29.160Z,11.43
2022-08-07T01:00:55.820Z,11.49
2022-08-07T01:03:54.544Z,11.32
2022-08-07T01:06:09.482Z,11.26
2022-08-07T01:08:43.186Z,11.25
2022-08-07T01:12:27.709Z,11.26
2022-08-07T01:14:08.798Z,11.43
2022-08-07T01:16:35.939Z,11.35
2022-08-07T01:19:03.715Z,11.18
2022-08-07T01:21:30.629Z,11.13
2022-08-07T01:23:57.813Z,11.17
2022-08-07T01:26:26.076Z,11.20
2022-08-07T01:28:53.264Z,11.11
2022-08-07T01:31:20.056Z,11.10
2022-08-07T01:33:55.675Z,11.13
2022-08-07T01:36:33.441Z,11.24
2022-08-07T01:39:00.832Z,11.32
2022-08-07T01:41:27.549Z,11.34
2022-08-07T01:43:54.159Z,11.29
2022-08-07T01:46:21.403Z,11.33
2022-08-07T01:48:48.215Z,11.31
2022-08-07T01:52:01.191Z,11.32
2022-08-07T01:54:12.119Z,11.36
2022-08-07T01:56:43.753Z,11.22
2022-08-07T01:59:38.214Z,11.23
2022-08-07T02:03:12.482Z,11.07
2022-08-07T02:05:09.292Z,10.89
2022-08-07T02:07:53.598Z,10.78
2022-08-07T02:10:23.365Z,10.72
2022-08-07T02:12:50.425Z,10.80
2022-08-07T02:15:20.455Z,10.74
2022-08-07T02:17:51.784Z,10.66
2022-08-07T02:20:23.295Z,10.62
2022-08-07T02:22:55.318Z,10.62
2022-08-07T02:25:22.011Z,10.64
2022-08-07T02:28:08.613Z,10.58
2022-08-07T02:30:38.430Z,10.52
2022-08-07T02:33:09.512Z,10.52
2022-08-07T02:36:29.722Z,10.53
2022-08-07T02:38:33.565Z,10.55
2022-08-07T02:41:01.067Z,10.48
2022-08-07T02:43:30.513Z,10.47
2022-08-07T02:46:01.943Z,10.46
2022-08-07T02:48:54.920Z,10.57
2022-08-07T02:51:42.001Z,10.68
2022-08-07T02:54:09.309Z,10.61
2022-08-07T02:56:35.932Z,10.58
2022-08-07T02:59:03.881Z,10.47
2022-08-07T03:01:36.023Z,10.43
2022-08-07T03:04:07.154Z,10.34
2022-08-07T03:06:38.964Z,10.27
2022-08-07T03:09:05.966Z,10.20
2022-08-07T03:11:38.418Z,10.19
2022-08-07T03:14:05.713Z,10.12
2022-08-07T03:16:33.546Z,10.18
2022-08-07T03:19:00.228Z,10.08
2022-08-07T03:21:28.125Z,10.02
2022-08-07T03:24:17.805Z,10.03
2022-08-07T03:26:43.141Z,9.95
2022-08-07T03:29:24.616Z,9.94
2022-08-07T03:31:54.247Z,9.97
2022-08-07T03:34:22.942Z,9.90
2022-08-07T03:36:54.166Z,9.94
2022-08-07T03:39:58.895Z,9.85
2022-08-07T03:42:07.626Z,9.84
2022-08-07T03:44:36.086Z,9.81
2022-08-07T03:47:13.045Z,9.80
2022-08-07T03:49:40.280Z,9.79
2022-08-07T03:52:07.604Z,9.77
2022-08-07T03:54:54.225Z,9.64
2022-08-07T03:58:08.877Z,9.54
2022-08-07T04:00:09.053Z,9.44
2022-08-07T04:02:41.199Z,9.47
2022-08-07T04:05:08.195Z,9.46
2022-08-07T04:07:36.234Z,9.38
2022-08-07T04:10:15.737Z,9.37
2022-08-07T04:12:47.286Z,9.32
2022-08-07T04:15:13.934Z,9.31
2022-08-07T04:18:30.769Z,9.30
2022-08-07T04:20:29.466Z,9.27
2022-08-07T04:23:01.383Z,9.23
2022-08-07T04:25:29.215Z,9.39
2022-08-07T04:27:59.158Z,9.33
2022-08-07T04:30:43.860Z,9.26
2022-08-07T04:33:15.389Z,9.32
2022-08-07T04:35:44.345Z,9.35
2022-08-07T04:38:17.953Z,9.36
2022-08-07T04:40:51.714Z,9.36
2022-08-07T04:44:11.763Z,9.37
2022-08-07T04:46:29.472Z,9.14
2022-08-07T04:49:24.609Z,9.12
2022-08-07T04:52:14.828Z,9.25
2022-08-07T04:54:54.303Z,9.32
2022-08-07T04:58:10.246Z,9.32
2022-08-07T05:00:30.234Z,9.37
2022-08-07T05:03:31.130Z,9.37
2022-08-07T05:06:01.343Z,9.44
2022-08-07T05:09:01.540Z,9.52
2022-08-07T05:11:57.388Z,9.59
2022-08-07T05:14:56.076Z,9.66
2022-08-07T05:17:51.830Z,9.68
2022-08-07T05:20:09.658Z,9.65
2022-08-07T05:22:36.690Z,9.64
2022-08-07T05:25:08.454Z,9.69
2022-08-07T05:28:16.044Z,9.67
2022-08-07T05:30:30.240Z,9.79
2022-08-07T05:33:00.087Z,9.87
2022-08-07T05:35:33.518Z,9.99
2022-08-07T05:38:09.661Z,9.99
2022-08-07T05:40:50.559Z,9.98
2022-08-07T05:44:08.472Z,10.09
2022-08-07T05:46:06.610Z,10.17
2022-08-07T05:48:33.268Z,10.25
2022-08-07T05:51:01.353Z,10.30
2022-08-07T05:54:12.901Z,10.33
2022-08-07T05:56:16.180Z,10.39
2022-08-07T05:58:52.496Z,10.49
2022-08-07T06:01:19.716Z,10.59
2022-08-07T06:03:56.422Z,10.65
2022-08-07T06:06:23.612Z,10.73
2022-08-07T06:08:56.723Z,10.82
2022-08-07T06:11:24.944Z,11.05
2022-08-07T06:14:11.446Z,11.28
2022-08-07T06:16:38.299Z,11.47
2022-08-07T06:19:06.452Z,11.62
2022-08-07T06:22:14.715Z,11.87
2022-08-07T06:24:45.541Z,11.98
2022-08-07T06:27:07.236Z,12.14
2022-08-07T06:29:34.569Z,12.22
2022-08-07T06:32:05.630Z,12.25
2022-08-07T06:34:33.506Z,12.41
2022-08-07T06:37:02.656Z,12.43
2022-08-07T06:40:15.989Z,12.48
2022-08-07T06:42:34.763Z,12.57
2022-08-07T06:45:02.035Z,12.63
2022-08-07T06:47:28.799Z,12.62
2022-08-07T06:50:15.068Z,12.72
2022-08-07T06:52:54.089Z,12.77
2022-08-07T06:56:00.154Z,12.89
2022-08-07T06:58:16.657Z,13.04
2022-08-07T07:00:47.904Z,13.18
2022-08-07T07:03:26.301Z,13.35
2022-08-07T07:06:11.101Z,13.38
2022-08-07T07:08:39.964Z,13.56
2022-08-07T07:12:08.256Z,13.68
2022-08-07T07:14:02.340Z,13.92
2022-08-07T07:16:31.038Z,14.20
2022-08-07T07:19:11.548Z,14.47
2022-08-07T07:22:04.569Z,15.04
2022-08-07T07:24:36.961Z,15.78
2022-08-07T07:27:04.616Z,16.33
2022-08-07T07:29:56.456Z,17.29
2022-08-07T07:32:22.694Z,18.04
2022-08-07T07:34:51.646Z,18.66
2022-08-07T07:37:45.480Z,19.34
2022-08-07T07:40:10.547Z,20.04
2022-08-07T07:42:41.657Z,20.63
2022-08-07T07:45:09.302Z,20.63
2022-08-07T07:47:42.907Z,21.04
2022-08-07T07:50:36.253Z,21.35
2022-08-07T07:53:20.258Z,21.84
2022-08-07T07:55:56.263Z,22.15
2022-08-07T07:58:25.688Z,22.55
2022-08-07T08:00:54.510Z,22.89
2022-08-07T08:04:06.144Z,23.15
2022-08-07T08:06:08.406Z,23.43
2022-08-07T08:08:41.806Z,23.66
2022-08-07T08:11:16.206Z,23.73
2022-08-07T08:13:54.149Z,24.01
2022-08-07T08:16:24.960Z,24.08
2022-08-07T08:18:51.938Z,24.20
2022-08-07T08:21:18.553Z,24.25
2022-08-07T08:23:45.846Z,23.99
2022-08-07T08:26:12.989Z,24.22
2022-08-07T08:28:44.889Z,24.92
2022-08-07T08:31:22.807Z,25.04
2022-08-07T08:33:57.925Z,24.80
2022-08-07T08:36:29.794Z,24.97
2022-08-07T08:38:57.118Z,25.43
2022-08-07T08:41:57.170Z,25.75
2022-08-07T08:44:29.431Z,25.94
2022-08-07T08:47:05.255Z,26.19
2022-08-07T08:49:46.306Z,26.14
2022-08-07T08:52:54.053Z,26.34
2022-08-07T08:55:55.167Z,26.70
2022-08-07T08:58:38.326Z,26.77
2022-08-07T09:01:18.466Z,26.82
2022-08-07T09:03:55.206Z,26.47
2022-08-07T09:06:42.725Z,26.29
2022-08-07T09:09:44.313Z,26.92
2022-08-07T09:12:37.691Z,26.35
2022-08-07T09:16:20.482Z,26.84
2022-08-07T09:18:16.750Z,27.02
2022-08-07T09:21:13.813Z,25.79
2022-08-07T09:24:33.477Z,26.08
2022-08-07T09:27:21.807Z,26.50
2022-08-07T09:30:06.064Z,27.17
2022-08-07T09:32:49.643Z,26.92
2022-08-07T09:36:05.246Z,26.40
2022-08-07T09:38:05.465Z,26.09
2022-08-07T09:41:07.049Z,26.83
2022-08-07T09:43:40.371Z,27.10
2022-08-07T09:47:24.823Z,26.53
2022-08-07T09:50:19.032Z,26.98
2022-08-07T09:53:12.852Z,27.90
2022-08-07T09:56:19.802Z,27.67
2022-08-07T09:59:44.622Z,28.14
2022-08-07T10:02:41.105Z,27.79
2022-08-07T10:05:59.101Z,27.42
2022-08-07T10:08:44.076Z,27.03
2022-08-07T10:12:01.611Z,27.61
2022-08-07T10:15:08.445Z,27.51
2022-08-07T10:18:19.829Z,28.05
2022-08-07T10:21:04.484Z,28.69
2022-08-07T10:24:06.964Z,28.91
2022-08-07T10:27:01.635Z,28.71
2022-08-07T10:29:51.747Z,28.82
2022-08-07T10:32:59.606Z,28.93
2022-08-07T10:35:53.465Z,29.00
2022-08-07T10:38:42.083Z,28.36
2022-08-07T10:41:46.396Z,27.09
2022-08-07T10:44:07.961Z,27.81
2022-08-07T10:46:51.309Z,28.08
2022-08-07T10:49:49.485Z,28.09
2022-08-07T10:52:18.804Z,27.98
2022-08-07T10:55:00.933Z,27.83
2022-08-07T10:57:46.571Z,28.00
2022-08-07T11:00:39.622Z,27.92
2022-08-07T11:03:14.589Z,28.01
2022-08-07T11:06:06.382Z,27.93
2022-08-07T11:08:55.019Z,28.05
2022-08-07T11:11:29.901Z,27.54
2022-08-07T11:14:45.968Z,27.62
2022-08-07T11:18:04.556Z,27.53
2022-08-07T11:20:34.155Z,26.83
2022-08-07T11:23:09.647Z,26.52
2022-08-07T11:25:42.437Z,26.26
2022-08-07T11:28:18.399Z,26.32
2022-08-07T11:31:15.880Z,26.25
2022-08-07T11:33:53.770Z,26.29
2022-08-07T11:36:53.583Z,26.30
2022-08-07T11:39:58.994Z,26.69
2022-08-07T11:42:55.454Z,26.30
2022-08-07T11:45:49.790Z,26.41
2022-08-07T11:48:35.483Z,26.76
2022-08-07T11:51:10.899Z,26.71
2022-08-07T11:54:34.899Z,26.44
2022-08-07T11:57:14.266Z,26.54
2022-08-07T12:00:18.432Z,26.30
2022-08-07T12:03:44.892Z,26.26
2022-08-07T12:06:37.827Z,25.82
2022-08-07T12:09:07.449Z,25.34
2022-08-07T12:11:43.279Z,25.21
2022-08-07T12:14:27.395Z,25.43
2022-08-07T12:17:00.460Z,25.51
2022-08-07T12:20:03.443Z,25.59
2022-08-07T12:22:58.458Z,25.55
2022-08-07T12:26:06.041Z,25.71
2022-08-07T12:28:30.827Z,25.62
2022-08-07T12:31:06.641Z,25.46
2022-08-07T12:34:01.364Z,25.64
2022-08-07T12:36:32.803Z,25.47
2022-08-07T12:39:09.369Z,25.17
2022-08-07T12:41:52.427Z,24.72
2022-08-07T12:44:19.200Z,24.58
2022-08-07T12:47:30.692Z,24.30
2022-08-07T12:50:34.358Z,24.51
2022-08-07T12:53:17.765Z,24.37
2022-08-07T12:56:12.745Z,24.54
2022-08-07T12:58:43.800Z,24.59
2022-08-07T13:01:40.594Z,24.55
2022-08-07T13:05:00.998Z,24.79
2022-08-07T13:08:13.464Z,24.78
2022-08-07T13:10:45.678Z,24.55
2022-08-07T13:13:50.235Z,24.11
2022-08-07T13:16:46.657Z,24.19
2022-08-07T13:19:50.620Z,24.26
2022-08-07T13:22:28.117Z,24.57
2022-08-07T13:25:00.090Z,24.94
2022-08-07T13:27:33.240Z,25.25
2022-08-07T13:30:19.630Z,25.40
2022-08-07T13:34:31.413Z,24.96
2022-08-07T13:36:17.874Z,24.76
2022-08-07T13:38:47.982Z,24.85
2022-08-07T13:41:42.376Z,24.75
2022-08-07T13:44:18.603Z,24.91
2022-08-07T13:46:53.773Z,24.93
2022-08-07T13:50:33.659Z,25.17
2022-08-07T13:54:49.067Z,25.48
2022-08-07T13:57:23.933Z,25.54
2022-08-07T13:59:53.074Z,25.45
2022-08-07T14:02:39.589Z,25.23
2022-08-07T14:05:15.864Z,24.98
2022-08-07T14:07:59.334Z,24.89
2022-08-07T14:10:33.085Z,24.91
2022-08-07T14:13:08.443Z,24.63
2022-08-07T14:15:39.310Z,24.50
2022-08-07T14:18:15.989Z,24.10
2022-08-07T14:22:41.069Z,23.86
2022-08-07T14:24:09.263Z,23.97
2022-08-07T14:26:50.541Z,24.08
2022-08-07T14:30:07.555Z,24.17
2022-08-07T14:32:16.320Z,24.24
2022-08-07T14:34:46.747Z,24.40
2022-08-07T14:37:16.314Z,24.52
2022-08-07T14:40:16.376Z,24.60
2022-08-07T14:42:31.451Z,24.78
2022-08-07T14:44:59.943Z,24.76
2022-08-07T14:47:47.081Z,24.57
2022-08-07T14:50:14.082Z,24.27
2022-08-07T14:52:40.737Z,24.03
2022-08-07T14:55:08.888Z,24.05
2022-08-07T14:57:58.440Z,23.90
2022-08-07T15:00:30.418Z,23.92
2022-08-07T15:03:19.500Z,24.05
2022-08-07T15:05:54.225Z,24.16
2022-08-07T15:08:50.168Z,23.96
2022-08-07T15:11:54.456Z,23.99
2022-08-07T15:14:15.265Z,23.82
2022-08-07T15:16:54.774Z,23.70
2022-08-07T15:20:31.468Z,23.65
2022-08-07T15:22:23.096Z,23.72
2022-08-07T15:25:13.286Z,23.62
2022-08-07T15:28:33.173Z,23.59
2022-08-07T15:30:31.387Z,23.57
2022-08-07T15:33:03.890Z,23.61
2022-08-07T15:36:01.927Z,23.75
2022-08-07T15:38:30.290Z,23.73
2022-08-07T15:41:23.008Z,23.68
2022-08-07T15:43:59.489Z,23.79
2022-08-07T15:46:31.095Z,23.58
2022-08-07T15:54:39.658Z,23.41
2022-08-07T15:57:28.138Z,23.47
2022-08-07T15:59:59.430Z,23.51
2022-08-07T16:02:33.127Z,23.60
2022-08-07T16:05:01.268Z,23.44
2022-08-07T16:08:31.755Z,23.32
2022-08-07T16:10:21.802Z,23.31
2022-08-07T16:13:17.991Z,23.33
2022-08-07T16:16:43.060Z,23.28
2022-08-07T16:19:42.934Z,23.26
2022-08-07T16:22:37.726Z,23.22
2022-08-07T16:25:54.379Z,22.95
2022-08-07T16:29:18.660Z,22.96
2022-08-07T16:31:51.197Z,22.93
2022-08-07T16:34:33.270Z,22.94
2022-08-07T16:38:06.471Z,22.99
2022-08-07T16:41:01.518Z,22.83
2022-08-07T16:44:03.930Z,22.74
2022-08-07T16:47:07.897Z,22.74
2022-08-07T16:50:28.094Z,22.62
2022-08-07T16:52:52.803Z,22.53
2022-08-07T16:55:22.394Z,22.43
2022-08-07T16:58:04.141Z,22.30
2022-08-07T17:00:38.394Z,22.25
2022-08-07T17:03:59.633Z,22.10
2022-08-07T17:06:42.527Z,22.03
2022-08-07T17:10:07.382Z,21.97
2022-08-07T17:12:35.611Z,21.96
2022-08-07T17:15:07.035Z,21.89
2022-08-07T17:17:46.925Z,21.90
2022-08-07T17:20:32.664Z,21.73
2022-08-07T17:23:14.636Z,21.70
2022-08-07T17:26:23.287Z,21.64
2022-08-07T17:30:15.975Z,21.52
2022-08-07T17:32:30.445Z,21.57
2022-08-07T17:35:51.177Z,21.43
2022-08-07T17:38:33.245Z,21.31
2022-08-07T17:42:02.005Z,21.27
2022-08-07T17:44:41.437Z,21.21
2022-08-07T17:47:38.602Z,21.10
2022-08-07T17:50:42.608Z,20.98
2022-08-07T17:54:01.552Z,20.84
2022-08-07T17:56:15.309Z,20.76
2022-08-07T17:58:56.805Z,20.72
2022-08-07T18:01:56.803Z,20.58
2022-08-07T18:04:24.654Z,20.46
2022-08-07T18:07:37.687Z,20.50
2022-08-07T18:10:32.541Z,20.48
2022-08-07T18:12:59.766Z,20.42
2022-08-07T18:15:32.600Z,20.27
2022-08-07T18:18:45.627Z,20.08
2022-08-07T18:21:57.911Z,20.00
2022-08-07T18:24:28.461Z,19.98
2022-08-07T18:27:21.064Z,19.90
2022-08-07T18:30:36.876Z,19.67
2022-08-07T18:33:30.257Z,19.54
2022-08-07T18:36:09.281Z,19.36
2022-08-07T18:38:58.723Z,19.38
2022-08-07T18:41:45.241Z,19.04
2022-08-07T18:44:24.769Z,18.90
2022-08-07T18:47:00.809Z,18.85
2022-08-07T18:50:30.515Z,18.63
2022-08-07T18:52:52.526Z,18.55
2022-08-07T18:55:43.627Z,18.38
2022-08-07T18:58:42.385Z,18.23
2022-08-07T19:02:33.444Z,18.03
2022-08-07T19:04:37.208Z,18.04
2022-08-07T19:07:16.477Z,17.95
2022-08-07T19:09:59.681Z,17.85
2022-08-07T19:12:33.172Z,17.89
2022-08-07T19:16:03.158Z,17.80
2022-08-07T19:18:11.637Z,17.62
2022-08-07T19:21:09.718Z,17.58
2022-08-07T19:23:58.373Z,17.57
2022-08-07T19:26:29.586Z,17.33
2022-08-07T19:30:59.992Z,17.23
2022-08-07T19:32:10.679Z,17.05
2022-08-07T19:34:38.644Z,16.97
2022-08-07T19:37:09.831Z,16.89
2022-08-07T19:39:57.895Z,16.76
2022-08-07T19:42:30.746Z,16.65
2022-08-07T19:45:01.192Z,16.63
2022-08-07T19:47:36.381Z,16.58
2022-08-07T19:50:44.485Z,16.50
2022-08-07T19:52:58.769Z,16.31
2022-08-07T19:55:26.004Z,16.19
2022-08-07T19:58:15.291Z,16.20
2022-08-07T20:00:55.475Z,16.21
2022-08-07T20:03:35.670Z,16.11
2022-08-07T20:06:03.943Z,15.94
2022-08-07T20:08:33.322Z,15.88
2022-08-07T20:11:03.707Z,15.87
2022-08-07T20:13:46.392Z,15.79
2022-08-07T20:16:31.954Z,15.75
2022-08-07T20:19:04.706Z,15.66
2022-08-07T20:21:41.702Z,15.49
2022-08-07T20:24:28.443Z,15.41
2022-08-07T20:26:57.434Z,15.34
2022-08-07T20:29:48.702Z,15.34
2022-08-07T20:32:23.043Z,15.19
2022-08-07T20:34:54.189Z,15.26
2022-08-07T20:37:22.557Z,15.12
2022-08-07T20:40:04.156Z,15.04
2022-08-07T20:42:32.644Z,15.00
2022-08-07T20:44:59.402Z,14.97
2022-08-07T20:47:26.023Z,14.92
2022-08-07T20:50:12.610Z,14.94
2022-08-07T20:52:51.045Z,14.85
2022-08-07T20:55:20.740Z,14.62
2022-08-07T20:58:02.234Z,14.52
2022-08-07T21:00:42.888Z,14.60
2022-08-07T21:03:15.748Z,14.54
2022-08-07T21:05:56.117Z,14.43
2022-08-07T21:08:39.139Z,14.27
2022-08-07T21:11:12.446Z,14.24
2022-08-07T21:14:29.858Z,14.07
2022-08-07T21:16:56.321Z,14.03
2022-08-07T21:19:32.415Z,14.08
2022-08-07T21:22:20.350Z,14.11
2022-08-07T21:25:01.009Z,13.98
2022-08-07T21:27:55.680Z,13.96
2022-08-07T21:31:09.114Z,13.89
2022-08-07T21:34:16.428Z,13.81
2022-08-07T21:36:50.054Z,13.82
2022-08-07T21:39:45.609Z,13.84
2022-08-07T21:42:41.929Z,13.67
2022-08-07T21:46:03.593Z,13.70
2022-08-07T21:48:27.607Z,13.62
2022-08-07T21:51:19.751Z,13.46
2022-08-07T21:53:52.944Z,13.40
2022-08-07T21:56:48.074Z,13.33
2022-08-07T22:00:19.176Z,13.33
2022-08-07T22:03:08.409Z,13.24
2022-08-07T22:05:48.847Z,13.23
2022-08-07T22:08:18.325Z,13.27
2022-08-07T22:10:46.086Z,13.19
2022-08-07T22:13:13.915Z,13.28
2022-08-07T22:16:43.245Z,13.35
2022-08-07T22:19:05.092Z,13.26
2022-08-07T22:22:02.691Z,13.17
2022-08-07T22:24:54.615Z,13.12
2022-08-07T22:27:34.198Z,13.16
2022-08-07T22:30:19.055Z,13.06
2022-08-07T22:33:04.342Z,13.01
2022-08-07T22:35:54.745Z,13.02
2022-08-07T22:38:48.157Z,13.19
2022-08-07T22:41:19.937Z,13.15
2022-08-07T22:43:51.296Z,12.96
2022-08-07T22:47:03.860Z,12.84
2022-08-07T22:49:55.008Z,13.03
2022-08-07T22:52:37.065Z,12.99
2022-08-07T22:55:29.926Z,12.94
2022-08-07T22:58:37.858Z,12.86
2022-08-07T23:01:22.685Z,12.86
2022-08-07T23:04:16.321Z,12.78
2022-08-07T23:06:55.039Z,12.83
2022-08-07T23:10:04.524Z,12.78
2022-08-07T23:12:34.635Z,12.75
2022-08-07T23:16:05.608Z,12.67
2022-08-07T23:18:26.498Z,12.71
2022-08-07T23:21:43.333Z,12.63
2022-08-07T23:24:28.037Z,12.62
2022-08-07T23:26:58.339Z,12.62
2022-08-07T23:30:35.977Z,12.56
2022-08-07T23:34:21.200Z,12.49
2022-08-07T23:35:53.106Z,12.51
2022-08-07T23:38:54.814Z,12.51
2022-08-07T23:42:04.116Z,12.43
2022-08-07T23:44:59.062Z,12.40
2022-08-07T23:47:52.438Z,12.31
2022-08-07T23:50:33.415Z,12.32
2022-08-07T23:53:06.092Z,12.27
2022-08-07T23:55:51.946Z,12.21
2022-08-07T23:58:32.765Z,12.30
